Cortland, Illinois
Current Conditions -  °F | °C
As of 5:15 AM on Saturday 25 Oct 2014 (Local Time) from KDKB Reporting Station
Haze Haze  
Wind Chill: 55°   Ceiling: 1100
Heat Index: 55°   Visibility: 4mi
Dew Point: 54°   Wind: 8mph
Humidity: 94%   Direction: 290°WNW
Pressure: 29.93"   Gusts: NA
Location:  41.92°N, 88.69°W
Report Text: KDKB 251015Z AUTO 29007KT 4SM BR OVC011 13/12 A2993 RMK AO2 T01300120
Loading
Personal Weather Stations






























Interactive Weather Map
Tropical Storm Tracking
New forecast layout! Learn more

10-Day Weather Forecast

Advertisements
Track Severe Weather on mobile